createdAt,value
2018-12-12T00:01:53.109Z,99817.23
2018-12-12T00:04:21.878Z,99823.70
2018-12-12T00:06:51.907Z,99818.10
2018-12-12T00:09:20.503Z,99815.84
2018-12-12T00:11:49.183Z,99814.84
2018-12-12T00:14:18.316Z,99804.61
2018-12-12T00:16:46.871Z,99808.70
2018-12-12T00:19:16.150Z,99804.97
2018-12-12T00:21:44.653Z,99804.71
2018-12-12T00:24:13.205Z,99800.77
2018-12-12T00:26:43.798Z,99802.02
2018-12-12T00:29:13.770Z,99801.64
2018-12-12T00:31:42.377Z,99807.91
2018-12-12T00:34:11.534Z,99810.83
2018-12-12T00:36:40.050Z,99812.25
2018-12-12T00:39:09.440Z,99816.06
2018-12-12T00:41:39.195Z,99721.14
2018-12-12T00:44:07.821Z,99811.28
2018-12-12T00:46:36.801Z,99808.16
2018-12-12T00:49:05.453Z,99803.14
2018-12-12T00:51:36.302Z,99798.91
2018-12-12T00:54:04.791Z,99795.93
2018-12-12T00:56:33.294Z,99794.39
2018-12-12T00:59:02.961Z,99789.52
2018-12-12T01:01:31.491Z,99793.64
2018-12-12T01:04:00.019Z,99790.52
2018-12-12T01:06:29.118Z,99784.69
2018-12-12T01:08:57.691Z,99790.83
2018-12-12T01:11:31.661Z,99799.23
2018-12-12T01:14:00.108Z,99796.78
2018-12-12T01:16:28.632Z,99801.48
2018-12-12T01:18:57.218Z,99798.44
2018-12-12T01:21:25.838Z,99800.11
2018-12-12T01:23:54.381Z,99798.57
2018-12-12T01:26:22.955Z,99795.59
2018-12-12T01:28:51.540Z,99794.70
2018-12-12T01:31:20.073Z,99800.58
2018-12-12T01:33:49.201Z,99800.46
2018-12-12T01:36:17.746Z,99799.36
2018-12-12T01:38:46.236Z,99804.09
2018-12-12T01:41:14.854Z,99807.86
2018-12-12T01:43:43.369Z,99804.61
2018-12-12T01:46:11.959Z,99810.97
2018-12-12T01:48:41.557Z,99805.80
2018-12-12T01:51:10.234Z,99813.37
2018-12-12T01:53:39.721Z,99812.63
2018-12-12T01:56:08.217Z,99805.69
2018-12-12T01:58:37.043Z,99803.97
2018-12-12T02:01:05.568Z,99805.98
2018-12-12T02:03:34.068Z,99799.59
2018-12-12T02:06:02.655Z,99806.98
2018-12-12T02:08:31.274Z,99805.33
2018-12-12T02:10:59.775Z,99807.74
2018-12-12T02:13:35.641Z,99797.97
2018-12-12T02:16:05.950Z,99441.02
2018-12-12T02:18:35.671Z,99806.84
2018-12-12T02:21:05.805Z,99799.97
2018-12-12T02:23:34.262Z,99805.52
2018-12-12T02:26:03.400Z,99807.48
2018-12-12T02:28:31.982Z,99807.44
2018-12-12T02:31:00.533Z,99803.09
2018-12-12T02:33:29.110Z,99809.27
2018-12-12T02:35:57.650Z,99806.28
2018-12-12T02:38:26.280Z,99807.91
2018-12-12T02:40:55.377Z,99800.27
2018-12-12T02:43:23.866Z,99805.30
2018-12-12T02:45:52.437Z,99810.81
2018-12-12T02:48:20.912Z,99803.87
2018-12-12T02:50:49.536Z,99796.84
2018-12-12T02:53:18.148Z,99798.36
2018-12-12T02:55:47.500Z,99799.41
2018-12-12T02:58:16.290Z,99805.16
2018-12-12T03:00:45.576Z,99803.59
2018-12-12T03:03:14.639Z,99809.23
2018-12-12T03:05:43.912Z,99800.89
2018-12-12T03:08:12.403Z,99806.84
2018-12-12T03:10:40.914Z,99800.72
2018-12-12T03:13:09.620Z,99809.13
2018-12-12T03:15:38.136Z,99805.30
2018-12-12T03:18:06.749Z,99809.38
2018-12-12T03:20:35.294Z,99810.92
2018-12-12T03:23:04.363Z,99807.91
2018-12-12T03:25:32.898Z,99807.45
2018-12-12T03:28:01.386Z,99816.45
2018-12-12T03:30:30.535Z,99815.20
2018-12-12T03:32:59.107Z,99818.17
2018-12-12T03:35:28.288Z,99815.64
2018-12-12T03:37:56.802Z,99807.58
2018-12-12T03:40:25.870Z,99802.87
2018-12-12T03:42:55.387Z,99810.36
2018-12-12T03:45:23.866Z,99813.21
2018-12-12T03:47:52.444Z,99821.23
2018-12-12T03:50:20.981Z,99818.14
2018-12-12T03:52:49.546Z,99815.03
2018-12-12T03:55:18.142Z,99782.49
2018-12-12T03:57:47.234Z,99813.89
2018-12-12T04:00:16.212Z,99815.53
2018-12-12T04:02:44.874Z,99809.41
2018-12-12T04:05:13.830Z,99811.77
2018-12-12T04:07:42.465Z,99816.06
2018-12-12T04:10:11.406Z,99821.29
2018-12-12T04:12:40.230Z,99813.52
2018-12-12T04:15:09.540Z,99816.03
2018-12-12T04:17:38.271Z,99808.44
2018-12-12T04:20:07.721Z,99809.70
2018-12-12T04:22:36.842Z,99813.95
2018-12-12T04:25:06.880Z,99816.11
2018-12-12T04:27:35.387Z,99816.41
2018-12-12T04:30:04.315Z,99806.97
2018-12-12T04:32:32.901Z,99652.52
2018-12-12T04:35:01.390Z,99809.96
2018-12-12T04:37:30.136Z,99803.05
2018-12-12T04:39:59.765Z,99801.48
2018-12-12T04:42:28.379Z,99799.55
2018-12-12T04:44:56.867Z,99792.06
2018-12-12T04:47:25.331Z,99796.59
2018-12-12T04:49:54.626Z,99798.71
2018-12-12T04:52:23.184Z,99797.41
2018-12-12T04:54:51.795Z,99798.48
2018-12-12T04:57:20.314Z,99796.09
2018-12-12T04:59:48.893Z,99792.63
2018-12-12T05:02:21.844Z,99788.75
2018-12-12T05:04:50.889Z,99776.11
2018-12-12T05:07:19.443Z,99785.66
2018-12-12T05:09:48.040Z,99791.48
2018-12-12T05:12:16.773Z,99794.31
2018-12-12T05:14:45.409Z,99793.34
2018-12-12T05:17:13.998Z,99807.00
2018-12-12T05:19:43.010Z,99802.47
2018-12-12T05:22:11.710Z,99810.21
2018-12-12T05:24:41.029Z,99808.75
2018-12-12T05:27:09.563Z,99811.78
2018-12-12T05:29:38.471Z,99808.52
2018-12-12T05:32:06.928Z,99807.72
2018-12-12T05:34:35.969Z,99803.63
2018-12-12T05:37:04.459Z,99802.69
2018-12-12T05:39:33.639Z,99809.03
2018-12-12T05:42:02.700Z,99803.34
2018-12-12T05:44:31.476Z,99803.20
2018-12-12T05:46:59.934Z,99803.58
2018-12-12T05:49:28.564Z,99793.08
2018-12-12T05:51:57.637Z,99788.63
2018-12-12T05:54:28.385Z,99800.14
2018-12-12T05:57:01.029Z,99804.47
2018-12-12T05:59:31.091Z,99802.23
2018-12-12T06:02:00.436Z,99797.70
2018-12-12T06:04:30.618Z,99802.56
2018-12-12T06:07:00.586Z,99805.02
2018-12-12T06:09:29.279Z,99809.24
2018-12-12T06:11:57.876Z,99802.33
2018-12-12T06:14:26.385Z,99800.57
2018-12-12T06:16:55.248Z,99799.42
2018-12-12T06:19:24.155Z,99796.59
2018-12-12T06:21:53.214Z,99801.64
2018-12-12T06:24:21.987Z,99806.72
2018-12-12T06:26:50.638Z,99804.79
2018-12-12T06:29:19.281Z,99803.23
2018-12-12T06:31:48.516Z,99807.11
2018-12-12T06:34:17.217Z,99806.62
2018-12-12T06:36:45.802Z,99808.70
2018-12-12T06:39:16.554Z,99814.66
2018-12-12T06:41:45.037Z,99810.30
2018-12-12T06:44:14.388Z,99811.71
2018-12-12T06:46:43.028Z,99812.35
2018-12-12T06:49:12.935Z,99780.75
2018-12-12T06:53:05.901Z,99821.34
2018-12-12T06:55:34.426Z,99826.62
2018-12-12T06:58:03.062Z,99827.63
2018-12-12T07:00:31.613Z,99828.12
2018-12-12T07:03:01.120Z,99827.58
2018-12-12T07:05:30.474Z,99833.45
2018-12-12T07:07:59.205Z,99832.22
2018-12-12T07:10:27.931Z,99846.80
2018-12-12T07:12:56.520Z,99842.27
2018-12-12T07:15:25.661Z,99834.46
2018-12-12T07:17:54.957Z,99838.81
2018-12-12T07:20:23.661Z,99841.03
2018-12-12T07:22:52.269Z,99844.72
2018-12-12T07:25:22.046Z,99843.84
2018-12-12T07:27:50.505Z,99854.64
2018-12-12T07:30:19.002Z,99861.69
2018-12-12T07:32:47.530Z,99861.58
2018-12-12T07:35:16.216Z,99861.80
2018-12-12T07:37:45.418Z,99867.48
2018-12-12T07:40:14.450Z,99626.08
2018-12-12T07:42:43.149Z,99864.37
2018-12-12T07:45:11.825Z,99867.64
2018-12-12T07:47:40.277Z,99860.94
2018-12-12T07:50:08.793Z,99865.16
2018-12-12T07:52:37.365Z,99857.62
2018-12-12T07:55:07.082Z,99865.63
2018-12-12T07:57:36.383Z,99862.45
2018-12-12T08:00:05.223Z,99863.72
2018-12-12T08:02:34.077Z,99866.55
2018-12-12T08:05:02.670Z,99864.02
2018-12-12T08:07:31.974Z,99863.25
2018-12-12T08:10:00.762Z,99873.39
2018-12-12T08:12:29.291Z,99869.92
2018-12-12T08:14:58.491Z,99869.99
2018-12-12T08:17:27.483Z,99866.50
2018-12-12T08:19:56.809Z,99867.12
2018-12-12T08:22:25.758Z,99866.92
2018-12-12T08:24:55.158Z,99869.39
2018-12-12T08:27:24.338Z,99871.80
2018-12-12T08:29:52.854Z,99875.80
2018-12-12T08:32:21.366Z,99874.59
2018-12-12T08:34:51.157Z,99866.95
2018-12-12T08:37:19.673Z,99869.15
2018-12-12T08:39:48.194Z,99860.91
2018-12-12T08:42:16.752Z,99866.22
2018-12-12T08:44:45.271Z,99864.95
2018-12-12T08:47:14.362Z,99864.95
2018-12-12T08:49:42.766Z,99862.08
2018-12-12T08:52:12.027Z,99864.64
2018-12-12T08:54:40.503Z,99861.25
2018-12-12T08:57:09.379Z,99863.02
2018-12-12T08:59:37.954Z,99866.03
2018-12-12T09:02:08.530Z,99864.08
2018-12-12T09:04:38.402Z,99866.75
2018-12-12T09:07:07.475Z,99866.94
2018-12-12T09:09:36.163Z,99870.23
2018-12-12T09:12:04.643Z,99869.88
2018-12-12T09:14:33.833Z,99877.83
2018-12-12T09:17:02.305Z,99870.75
2018-12-12T09:19:30.745Z,99872.16
2018-12-12T09:21:59.297Z,99873.38
2018-12-12T09:24:28.012Z,99878.84
2018-12-12T09:26:56.618Z,99875.02
2018-12-12T09:29:25.549Z,99878.66
2018-12-12T09:31:54.097Z,99871.34
2018-12-12T09:34:22.568Z,99865.16
2018-12-12T09:36:51.117Z,99870.13
2018-12-12T09:39:19.763Z,99870.33
2018-12-12T09:41:48.345Z,99870.66
2018-12-12T09:44:17.681Z,99874.71
2018-12-12T09:46:46.238Z,99879.37
2018-12-12T09:49:15.435Z,99870.39
2018-12-12T09:51:44.439Z,99865.84
2018-12-12T09:54:12.922Z,99860.12
2018-12-12T09:56:41.462Z,99864.17
2018-12-12T09:59:10.234Z,99864.41
2018-12-12T10:01:38.820Z,99862.48
2018-12-12T10:04:07.342Z,99861.43
2018-12-12T10:06:35.942Z,99860.92
2018-12-12T10:09:07.052Z,99860.45
2018-12-12T10:11:35.521Z,99857.00
2018-12-12T10:14:04.047Z,99859.36
2018-12-12T10:16:32.581Z,99858.60
2018-12-12T10:19:01.018Z,99858.64
2018-12-12T10:21:30.719Z,99858.89
2018-12-12T10:23:59.245Z,99854.72
2018-12-12T10:26:27.738Z,99853.31
2018-12-12T10:28:57.010Z,99847.63
2018-12-12T10:31:25.634Z,99853.47
2018-12-12T10:33:54.758Z,99845.22
2018-12-12T10:36:24.071Z,99840.88
2018-12-12T10:38:53.470Z,99834.63
2018-12-12T10:41:22.774Z,99836.96
2018-12-12T10:43:51.397Z,99833.82
2018-12-12T10:46:19.919Z,99821.84
2018-12-12T10:48:48.399Z,99826.76
2018-12-12T10:51:16.929Z,99824.71
2018-12-12T10:53:45.534Z,99821.86
2018-12-12T10:56:13.989Z,99818.00
2018-12-12T10:58:43.010Z,99815.23
2018-12-12T11:01:17.178Z,99810.05
2018-12-12T11:03:46.247Z,99808.73
2018-12-12T11:06:16.001Z,99804.88
2018-12-12T11:08:44.541Z,99800.46
2018-12-12T11:11:13.892Z,99803.44
2018-12-12T11:13:43.855Z,99805.12
2018-12-12T11:16:12.844Z,99807.34
2018-12-12T11:18:42.049Z,99805.85
2018-12-12T11:21:10.672Z,99805.44
2018-12-12T11:23:40.059Z,99803.36
2018-12-12T11:26:08.533Z,99792.75
2018-12-12T11:28:37.813Z,99790.75
2018-12-12T11:31:06.430Z,99794.23
2018-12-12T11:33:35.669Z,99787.73
2018-12-12T11:36:04.181Z,99784.87
2018-12-12T11:38:34.161Z,99783.71
2018-12-12T11:41:04.015Z,99776.45
2018-12-12T11:43:33.230Z,99772.78
2018-12-12T11:46:01.744Z,99780.00
2018-12-12T11:48:31.252Z,99772.67
2018-12-12T11:50:59.870Z,99770.61
2018-12-12T11:53:29.718Z,99765.37
2018-12-12T11:55:58.218Z,99758.80
2018-12-12T11:58:27.354Z,99761.19
2018-12-12T12:00:55.814Z,99761.08
2018-12-12T12:03:24.338Z,99756.08
2018-12-12T12:05:52.814Z,99756.00
2018-12-12T12:08:21.457Z,99752.37
2018-12-12T12:10:50.032Z,99750.49
2018-12-12T12:13:18.807Z,99743.80
2018-12-12T12:15:47.389Z,99741.34
2018-12-12T12:18:16.025Z,99741.13
2018-12-12T12:20:44.678Z,99736.05
2018-12-12T12:23:14.005Z,99729.41
2018-12-12T12:25:43.258Z,99731.46
2018-12-12T12:28:11.882Z,99730.77
2018-12-12T12:30:40.393Z,99731.63
2018-12-12T12:33:08.907Z,99723.67
2018-12-12T12:35:37.705Z,99722.62
2018-12-12T12:38:06.174Z,99722.75
2018-12-12T12:40:34.703Z,99716.99
2018-12-12T12:43:03.246Z,99716.98
2018-12-12T12:45:31.759Z,99718.35
2018-12-12T12:48:00.316Z,99713.00
2018-12-12T12:50:28.913Z,99710.22
2018-12-12T12:52:57.346Z,99705.78
2018-12-12T12:55:25.871Z,99694.55
2018-12-12T12:57:54.374Z,99699.03
2018-12-12T13:00:22.981Z,99693.33
2018-12-12T13:02:51.460Z,99692.16
2018-12-12T13:05:20.038Z,99699.08
2018-12-12T13:07:48.621Z,99688.28
2018-12-12T13:10:17.479Z,99693.10
2018-12-12T13:12:46.671Z,99686.05
2018-12-12T13:15:15.824Z,99682.15
2018-12-12T13:17:44.328Z,99685.59
2018-12-12T13:20:12.847Z,99683.78
2018-12-12T13:22:43.199Z,99687.94
2018-12-12T13:25:11.823Z,99682.98
2018-12-12T13:27:40.298Z,99682.89
2018-12-12T13:30:09.106Z,99684.12
2018-12-12T13:32:37.664Z,99681.20
2018-12-12T13:35:07.408Z,99674.55
2018-12-12T13:37:37.985Z,99678.88
2018-12-12T13:40:07.362Z,99673.46
2018-12-12T13:42:35.837Z,99672.36
2018-12-12T13:45:04.501Z,99669.86
2018-12-12T13:47:32.941Z,99667.59
2018-12-12T13:50:01.528Z,99662.12
2018-12-12T13:52:30.091Z,99656.58
2018-12-12T13:54:58.773Z,99655.41
2018-12-12T13:57:27.300Z,99655.92
2018-12-12T13:59:56.561Z,99654.60
2018-12-12T14:02:25.162Z,99650.94
2018-12-12T14:04:53.652Z,99657.52
2018-12-12T14:07:22.098Z,99654.88
2018-12-12T14:09:50.760Z,99661.59
2018-12-12T14:12:19.312Z,99659.95
2018-12-12T14:14:47.880Z,99657.54
2018-12-12T14:17:16.370Z,99656.11
2018-12-12T14:19:44.936Z,99665.45
2018-12-12T14:22:13.479Z,99664.29
2018-12-12T14:24:41.997Z,99657.52
2018-12-12T14:27:10.529Z,99516.09
2018-12-12T14:29:38.985Z,99653.58
2018-12-12T14:32:08.162Z,99649.64
2018-12-12T14:34:36.736Z,99647.88
2018-12-12T14:37:05.286Z,99646.72
2018-12-12T14:39:33.826Z,99647.65
2018-12-12T14:42:02.424Z,99651.28
2018-12-12T14:44:30.863Z,99651.50
2018-12-12T14:46:59.375Z,99651.20
2018-12-12T14:49:27.892Z,99651.42
2018-12-12T14:51:56.442Z,99656.14
2018-12-12T14:54:24.910Z,99649.27
2018-12-12T14:56:54.502Z,99656.83
2018-12-12T14:59:23.010Z,99657.34
2018-12-12T15:01:51.720Z,99659.56
2018-12-12T15:04:20.339Z,99656.41
2018-12-12T15:06:48.935Z,99650.90
2018-12-12T15:09:17.934Z,99651.64
2018-12-12T15:11:46.582Z,99648.91
2018-12-12T15:14:15.481Z,99534.54
2018-12-12T15:16:44.155Z,99647.47
2018-12-12T15:19:12.715Z,99643.05
2018-12-12T15:21:41.324Z,99643.80
2018-12-12T15:24:09.887Z,99640.84
2018-12-12T15:26:38.599Z,99647.22
2018-12-12T15:29:07.229Z,99641.21
2018-12-12T15:31:35.838Z,99642.56
2018-12-12T15:34:05.188Z,99640.73
2018-12-12T15:36:33.866Z,99640.39
2018-12-12T15:39:02.515Z,99642.56
2018-12-12T15:41:31.206Z,99641.05
2018-12-12T15:44:01.045Z,99643.23
2018-12-12T15:46:30.550Z,99630.96
2018-12-12T15:48:59.124Z,99629.65
2018-12-12T15:51:27.952Z,99636.03
2018-12-12T15:53:56.600Z,99639.83
2018-12-12T15:56:25.261Z,99635.95
2018-12-12T15:58:53.905Z,99633.56
2018-12-12T16:01:22.656Z,99632.16
2018-12-12T16:03:51.254Z,99634.61
2018-12-12T16:06:19.836Z,99637.29
2018-12-12T16:08:48.598Z,99632.05
2018-12-12T16:11:23.596Z,99631.94
2018-12-12T16:13:53.795Z,99636.28
2018-12-12T16:16:22.336Z,99633.30
2018-12-12T16:18:50.897Z,99637.70
2018-12-12T16:21:19.814Z,99635.25
2018-12-12T16:23:48.388Z,99637.09
2018-12-12T16:26:16.905Z,99635.96
2018-12-12T16:28:45.409Z,99635.70
2018-12-12T16:31:14.073Z,99643.52
2018-12-12T16:33:43.917Z,99640.34
2018-12-12T16:36:13.825Z,99640.88
2018-12-12T16:38:42.347Z,99636.50
2018-12-12T16:41:10.852Z,99641.34
2018-12-12T16:43:39.461Z,99639.45
2018-12-12T16:46:08.239Z,99640.27
2018-12-12T16:48:36.764Z,99638.52
2018-12-12T16:51:05.369Z,99636.96
2018-12-12T16:53:34.178Z,99642.14
2018-12-12T16:56:02.670Z,99640.34
2018-12-12T16:58:31.266Z,99639.66
2018-12-12T17:01:02.186Z,99636.89
2018-12-12T17:03:30.790Z,99638.14
2018-12-12T17:06:11.292Z,99638.72
2018-12-12T17:08:40.348Z,99638.20
2018-12-12T17:11:09.760Z,99636.20
2018-12-12T17:13:38.352Z,99640.33
2018-12-12T17:16:06.827Z,99643.56
2018-12-12T17:18:35.624Z,99645.03
2018-12-12T17:21:04.807Z,99650.09
2018-12-12T17:23:33.294Z,99642.16
2018-12-12T17:26:02.067Z,99641.22
2018-12-12T17:28:30.611Z,99644.77
2018-12-12T17:30:59.208Z,99649.37
2018-12-12T17:33:27.943Z,99644.94
2018-12-12T17:35:56.552Z,99645.45
2018-12-12T17:38:25.400Z,99648.82
2018-12-12T17:40:54.405Z,99642.95
2018-12-12T17:43:23.613Z,99642.61
2018-12-12T17:45:52.455Z,99641.55
2018-12-12T17:48:22.606Z,99643.23
2018-12-12T17:50:51.407Z,99640.80
2018-12-12T17:53:20.448Z,99634.91
2018-12-12T17:55:49.162Z,99638.08
2018-12-12T17:58:17.734Z,99641.26
2018-12-12T18:00:46.463Z,99628.47
2018-12-12T18:03:18.534Z,99629.47
2018-12-12T18:05:48.844Z,99622.09
2018-12-12T18:08:18.390Z,99628.66
2018-12-12T18:10:47.614Z,99626.79
2018-12-12T18:13:17.712Z,99624.23
2018-12-12T18:15:47.188Z,99612.30
2018-12-12T18:18:15.986Z,99615.06
2018-12-12T18:20:44.574Z,99613.37
2018-12-12T18:23:17.522Z,99608.19
2018-12-12T18:25:46.167Z,99609.27
2018-12-12T18:28:18.461Z,99606.13
2018-12-12T18:30:59.935Z,99607.27
2018-12-12T18:33:28.887Z,99606.67
2018-12-12T18:36:12.310Z,99607.50
2018-12-12T18:38:41.059Z,99607.80
2018-12-12T18:41:09.817Z,99604.73
2018-12-12T18:43:44.029Z,99610.60
2018-12-12T18:46:19.949Z,99607.50
2018-12-12T18:48:48.723Z,99607.36
2018-12-12T18:51:17.747Z,99603.31
2018-12-12T18:53:46.451Z,99609.89
2018-12-12T18:56:15.332Z,99602.56
2018-12-12T18:58:44.483Z,99611.66
2018-12-12T19:01:13.218Z,99612.13
2018-12-12T19:03:41.967Z,99612.59
2018-12-12T19:06:10.722Z,99619.47
2018-12-12T19:08:39.294Z,99612.30
2018-12-12T19:11:07.955Z,99612.61
2018-12-12T19:13:37.061Z,99614.37
2018-12-12T19:16:05.744Z,99603.48
2018-12-12T19:18:34.291Z,99610.67
2018-12-12T19:21:03.016Z,99599.31
2018-12-12T19:23:31.961Z,99605.73
2018-12-12T19:26:00.602Z,99605.11
2018-12-12T19:28:29.251Z,99601.55
2018-12-12T19:30:58.129Z,99595.67
2018-12-12T19:33:26.790Z,99612.13
2018-12-12T19:35:55.418Z,99596.08
2018-12-12T19:38:23.955Z,99598.08
2018-12-12T19:40:52.594Z,99595.62
2018-12-12T19:43:21.108Z,99590.50
2018-12-12T19:45:49.651Z,99592.91
2018-12-12T19:48:18.240Z,99596.55
2018-12-12T19:50:46.963Z,99598.88
2018-12-12T19:53:15.490Z,99599.00
2018-12-12T19:55:44.073Z,99599.80
2018-12-12T19:58:12.638Z,99593.80
2018-12-12T20:00:41.254Z,99590.65
2018-12-12T20:03:09.830Z,99588.47
2018-12-12T20:05:41.462Z,99547.70
2018-12-12T20:08:09.569Z,99584.05
2018-12-12T20:10:40.164Z,99580.86
2018-12-12T20:13:08.701Z,99582.42
2018-12-12T20:15:46.616Z,99583.48
2018-12-12T20:18:15.145Z,99583.36
2018-12-12T20:20:49.205Z,99578.28
2018-12-12T20:23:17.698Z,99579.33
2018-12-12T20:25:46.237Z,99578.95
2018-12-12T20:28:14.818Z,99579.05
2018-12-12T20:30:43.400Z,99580.94
2018-12-12T20:33:12.460Z,99575.77
2018-12-12T20:35:40.907Z,99569.35
2018-12-12T20:38:12.716Z,99573.03
2018-12-12T20:40:41.244Z,99567.44
2018-12-12T20:43:09.739Z,99566.13
2018-12-12T20:45:38.273Z,99568.70
2018-12-12T20:48:06.751Z,99565.75
2018-12-12T20:50:35.216Z,99558.91
2018-12-12T20:53:03.713Z,99556.59
2018-12-12T20:55:32.213Z,99556.61
2018-12-12T20:58:00.688Z,99558.95
2018-12-12T21:00:29.138Z,99552.41
2018-12-12T21:02:57.691Z,99550.80
2018-12-12T21:05:26.169Z,99550.34
2018-12-12T21:07:55.250Z,99551.69
2018-12-12T21:13:55.197Z,99547.08
2018-12-12T21:16:23.681Z,99544.22
2018-12-12T21:18:52.211Z,99543.05
2018-12-12T21:21:20.661Z,99538.98
2018-12-12T21:23:49.128Z,99537.60
2018-12-12T21:26:18.130Z,99533.05
2018-12-12T21:28:46.777Z,99537.05
2018-12-12T21:31:15.259Z,99543.05
2018-12-12T21:33:43.727Z,99537.41
2018-12-12T21:36:12.182Z,99538.27
2018-12-12T21:38:40.653Z,99546.22
2018-12-12T21:41:10.075Z,99545.46
2018-12-12T21:43:39.157Z,99545.36
2018-12-12T21:46:07.646Z,99542.98
2018-12-12T21:48:36.098Z,99548.22
2018-12-12T21:51:04.639Z,99538.81
2018-12-12T21:53:33.155Z,99549.22
2018-12-12T21:56:01.735Z,99501.05
2018-12-12T21:58:30.265Z,99537.42
2018-12-12T22:00:58.753Z,99536.97
2018-12-12T22:03:27.263Z,99534.88
2018-12-12T22:05:56.113Z,99529.48
2018-12-12T22:08:24.683Z,99534.55
2018-12-12T22:10:53.185Z,99534.03
2018-12-12T22:13:22.760Z,99532.54
2018-12-12T22:15:51.498Z,99536.15
2018-12-12T22:18:20.601Z,99541.17
2018-12-12T22:20:50.490Z,99538.63
2018-12-12T22:23:19.064Z,99540.86
2018-12-12T22:25:48.105Z,99538.30
2018-12-12T22:28:16.665Z,99539.05
2018-12-12T22:30:45.124Z,99545.08
2018-12-12T22:33:13.645Z,99540.23
2018-12-12T22:35:42.308Z,99503.91
2018-12-12T22:38:10.845Z,99534.13
2018-12-12T22:40:39.301Z,99539.34
2018-12-12T22:43:07.806Z,99527.68
2018-12-12T22:45:36.277Z,99534.14
2018-12-12T22:48:04.962Z,99522.39
2018-12-12T22:50:33.466Z,99528.98
2018-12-12T22:53:01.953Z,99525.92
2018-12-12T22:55:31.202Z,99527.32
2018-12-12T22:57:59.689Z,99527.01
2018-12-12T23:00:33.625Z,99521.14
2018-12-12T23:03:02.150Z,99524.62
2018-12-12T23:05:30.642Z,99531.99
2018-12-12T23:07:59.269Z,99523.70
2018-12-12T23:10:27.749Z,99518.98
2018-12-12T23:12:56.305Z,99520.30
2018-12-12T23:15:25.313Z,99520.63
2018-12-12T23:17:53.901Z,99515.22
2018-12-12T23:20:22.962Z,99509.59
2018-12-12T23:22:51.726Z,99504.75
2018-12-12T23:25:20.274Z,99505.22
2018-12-12T23:27:48.782Z,99501.50
2018-12-12T23:30:17.306Z,99505.98
2018-12-12T23:32:45.830Z,99503.22
2018-12-12T23:35:14.313Z,99498.55
2018-12-12T23:37:42.818Z,99500.05
2018-12-12T23:40:11.396Z,99497.73
2018-12-12T23:42:39.920Z,99492.50
2018-12-12T23:45:08.440Z,99488.95
2018-12-12T23:47:37.147Z,99488.13
2018-12-12T23:50:05.965Z,99483.88
2018-12-12T23:52:34.524Z,99486.18
2018-12-12T23:55:03.010Z,99482.02
2018-12-12T23:57:33.385Z,99483.70
